NORTHERN NASSAU  -  Coastal Flood Statement Coastal Flood Statement        SOUTHERN NASSAU  -  Coastal Flood Statement Coastal Flood Statement      

Active alerts

Northern Nassau
  Details for Northern Nassau Coastal Flood Statement
Southern Nassau
  Details for Southern Nassau Coastal Flood Statement


WXM80 ListenWXM80 Stop

You find our weather info also at:

UK Metoffice

WeatherCloud

Weather Underground

Northeastern Weather Network

AWEKAS

Citizen Weather Observer Program (CWOP)

HAMweather, WeatherForYou, PWS Weather


Weather Underground History page Text

Daily Summary for September 17, 2017 Units:  Both    English   Metric
« Previous Day
Next Day »
Daily Weekly Monthly Yearly Custom
  High: Low: Average:
Temperature: 80.2 °F /  26.8 °C 65.1 °F /  18.4 °C 70.3 °F /  21.3 °C
Dew Point: 71.8 °F /  22.1 °C 63.3 °F /  17.4 °C 67.1 °F /  19.5 °C
Humidity: 98 % 73 % 90 %
Wind Speed: 5.1 mph /  8.2 km/h - 0.5 mph /  0.8 km/h
Wind Gust: 9.2 mph /  14.8 km/h - -
Wind:- - ESE
Pressure: 30.13 in /  1020.2 hPa 30.04 in /  1017.2 hPa -
Precipitation: 0.00 in /  0 mm    
Historical Graphs
 
 
Tabular Data for September 17, 2017
Time Temperature Dew Point Pressure Wind Wind Speed Wind Gust Humidity Rainfall Rate (Hourly)
00:01 66.6 °F /  19.2 °C 64.5 °F /  18.1 °C 30.09 in /  1018.8 hPa Calm     93 % 0.00 in /  0 mm
00:06 66.5 °F /  19.2 °C 64.4 °F /  18 °C 30.09 in /  1018.8 hPa Calm     93 % 0.00 in /  0 mm
00:12 66.5 °F /  19.2 °C 64.4 °F /  18 °C 30.09 in /  1018.8 hPa Calm     93 % 0.00 in /  0 mm
00:17 66.4 °F /  19.1 °C 64.3 °F /  17.9 °C 30.09 in /  1018.8 hPa Calm     93 % 0.00 in /  0 mm
00:22 66.3 °F /  19.1 °C 64.2 °F /  17.9 °C 30.09 in /  1018.8 hPa Calm     93 % 0.00 in /  0 mm
00:27 66.3 °F /  19.1 °C 64.2 °F /  17.9 °C 30.09 in /  1018.8 hPa Calm     93 % 0.00 in /  0 mm
00:32 66.2 °F /  19 °C 64.1 °F /  17.8 °C 30.09 in /  1018.8 hPa Calm     93 % 0.00 in /  0 mm
00:37 66.1 °F /  18.9 °C 64.0 °F /  17.8 °C 30.09 in /  1018.8 hPa Calm     93 % 0.00 in /  0 mm
00:47 66.0 °F /  18.9 °C 63.9 °F /  17.7 °C 30.09 in /  1018.8 hPa Calm     93 % 0.00 in /  0 mm
00:52 65.9 °F /  18.8 °C 63.8 °F /  17.7 °C 30.08 in /  1018.5 hPa Calm     93 % 0.00 in /  0 mm
00:57 65.9 °F /  18.8 °C 63.8 °F /  17.7 °C 30.09 in /  1018.8 hPa Calm     93 % 0.00 in /  0 mm
01:02 65.8 °F /  18.8 °C 63.7 °F /  17.6 °C 30.09 in /  1018.8 hPa Calm     93 % 0.00 in /  0 mm
01:07 65.7 °F /  18.7 °C 63.6 °F /  17.6 °C 30.08 in /  1018.5 hPa Calm     93 % 0.00 in /  0 mm
01:13 65.7 °F /  18.7 °C 63.6 °F /  17.6 °C 30.08 in /  1018.5 hPa Calm     93 % 0.00 in /  0 mm
01:18 65.6 °F /  18.7 °C 63.5 °F /  17.5 °C 30.08 in /  1018.5 hPa Calm     93 % 0.00 in /  0 mm
01:23 65.6 °F /  18.7 °C 63.8 °F /  17.7 °C 30.08 in /  1018.5 hPa Calm     94 % 0.00 in /  0 mm
01:28 65.5 °F /  18.6 °C 63.7 °F /  17.6 °C 30.08 in /  1018.5 hPa Calm     94 % 0.00 in /  0 mm
01:33 65.4 °F /  18.6 °C 63.6 °F /  17.6 °C 30.08 in /  1018.5 hPa Calm     94 % 0.00 in /  0 mm
01:38 65.4 °F /  18.6 °C 63.6 °F /  17.6 °C 30.08 in /  1018.5 hPa Calm     94 % 0.00 in /  0 mm
01:43 65.3 °F /  18.5 °C 63.5 °F /  17.5 °C 30.08 in /  1018.5 hPa Calm     94 % 0.00 in /  0 mm
01:48 65.2 °F /  18.4 °C 63.4 °F /  17.4 °C 30.08 in /  1018.5 hPa Calm     94 % 0.00 in /  0 mm
01:53 65.2 °F /  18.4 °C 63.4 °F /  17.4 °C 30.08 in /  1018.5 hPa Calm     94 % 0.00 in /  0 mm
01:58 65.1 °F /  18.4 °C 63.3 °F /  17.4 °C 30.08 in /  1018.5 hPa Calm     94 % 0.00 in /  0 mm
02:03 65.1 °F /  18.4 °C 63.3 °F /  17.4 °C 30.08 in /  1018.5 hPa Calm     94 % 0.00 in /  0 mm
02:08 65.1 °F /  18.4 °C 63.3 °F /  17.4 °C 30.08 in /  1018.5 hPa Calm     94 % 0.00 in /  0 mm
02:13 65.2 °F /  18.4 °C 63.7 °F /  17.6 °C 30.08 in /  1018.5 hPa Calm     95 % 0.00 in /  0 mm
02:19 65.3 °F /  18.5 °C 63.8 °F /  17.7 °C 30.07 in /  1018.2 hPa Calm     95 % 0.00 in /  0 mm
02:24 65.3 °F /  18.5 °C 63.8 °F /  17.7 °C 30.08 in /  1018.5 hPa Calm     95 % 0.00 in /  0 mm
02:29 65.3 °F /  18.5 °C 63.8 °F /  17.7 °C 30.07 in /  1018.2 hPa Calm     95 % 0.00 in /  0 mm
02:34 65.3 °F /  18.5 °C 63.8 °F /  17.7 °C 30.07 in /  1018.2 hPa Calm     95 % 0.00 in /  0 mm
02:39 65.3 °F /  18.5 °C 63.8 °F /  17.7 °C 30.08 in /  1018.5 hPa Calm     95 % 0.00 in /  0 mm
02:44 65.2 °F /  18.4 °C 63.7 °F /  17.6 °C 30.08 in /  1018.5 hPa Calm     95 % 0.00 in /  0 mm
02:49 65.2 °F /  18.4 °C 64.0 °F /  17.8 °C 30.08 in /  1018.5 hPa Calm     96 % 0.00 in /  0 mm
02:54 65.2 °F /  18.4 °C 64.0 °F /  17.8 °C 30.07 in /  1018.2 hPa Calm     96 % 0.00 in /  0 mm
02:59 65.3 °F /  18.5 °C 64.1 °F /  17.8 °C 30.07 in /  1018.2 hPa Calm     96 % 0.00 in /  0 mm
03:04 65.3 °F /  18.5 °C 64.1 °F /  17.8 °C 30.07 in /  1018.2 hPa Calm     96 % 0.00 in /  0 mm
03:09 65.4 °F /  18.6 °C 64.2 °F /  17.9 °C 30.07 in /  1018.2 hPa Calm     96 % 0.00 in /  0 mm
03:14 65.6 °F /  18.7 °C 64.4 °F /  18 °C 30.08 in /  1018.5 hPa Calm     96 % 0.00 in /  0 mm
03:20 65.7 °F /  18.7 °C 64.5 °F /  18.1 °C 30.08 in /  1018.5 hPa Calm     96 % 0.00 in /  0 mm
03:25 65.7 °F /  18.7 °C 64.5 °F /  18.1 °C 30.08 in /  1018.5 hPa Calm     96 % 0.00 in /  0 mm
03:30 65.8 °F /  18.8 °C 64.9 °F /  18.3 °C 30.08 in /  1018.5 hPa Calm     97 % 0.00 in /  0 mm
03:35 66.0 °F /  18.9 °C 65.1 °F /  18.4 °C 30.08 in /  1018.5 hPa Calm     97 % 0.00 in /  0 mm
03:40 66.1 °F /  18.9 °C 65.2 °F /  18.4 °C 30.08 in /  1018.5 hPa Calm     97 % 0.00 in /  0 mm
03:45 66.1 °F /  18.9 °C 65.2 °F /  18.4 °C 30.08 in /  1018.5 hPa Calm     97 % 0.00 in /  0 mm
03:50 66.3 °F /  19.1 °C 65.4 °F /  18.6 °C 30.07 in /  1018.2 hPa Calm     97 % 0.00 in /  0 mm
03:52 66.3 °F /  19.1 °C 65.4 °F /  18.6 °C 30.08 in /  1018.5 hPa Calm     97 % 0.00 in /  0 mm
03:57 66.4 °F /  19.1 °C 65.5 °F /  18.6 °C 30.08 in /  1018.5 hPa Calm     97 % 0.00 in /  0 mm
04:02 66.4 °F /  19.1 °C 65.5 °F /  18.6 °C 30.08 in /  1018.5 hPa Calm     97 % 0.00 in /  0 mm
04:07 66.5 °F /  19.2 °C 65.6 °F /  18.7 °C 30.08 in /  1018.5 hPa Calm     97 % 0.00 in /  0 mm
04:12 66.5 °F /  19.2 °C 65.6 °F /  18.7 °C 30.08 in /  1018.5 hPa Calm     97 % 0.00 in /  0 mm
04:17 66.7 °F /  19.3 °C 65.8 °F /  18.8 °C 30.08 in /  1018.5 hPa Calm     97 % 0.00 in /  0 mm
04:22 66.7 °F /  19.3 °C 65.8 °F /  18.8 °C 30.08 in /  1018.5 hPa SSW 0.2 mph /  0.3 km/h   97 % 0.00 in /  0 mm
04:27 66.7 °F /  19.3 °C 65.8 °F /  18.8 °C 30.08 in /  1018.5 hPa Calm     97 % 0.00 in /  0 mm
04:33 66.7 °F /  19.3 °C 65.8 °F /  18.8 °C 30.08 in /  1018.5 hPa Calm     97 % 0.00 in /  0 mm
04:38 66.7 °F /  19.3 °C 65.8 °F /  18.8 °C 30.08 in /  1018.5 hPa Calm     97 % 0.00 in /  0 mm
04:43 66.7 °F /  19.3 °C 65.8 °F /  18.8 °C 30.08 in /  1018.5 hPa Calm     97 % 0.00 in /  0 mm
04:48 66.7 °F /  19.3 °C 65.8 °F /  18.8 °C 30.08 in /  1018.5 hPa Calm     97 % 0.00 in /  0 mm
04:58 66.7 °F /  19.3 °C 65.8 °F /  18.8 °C 30.08 in /  1018.5 hPa Calm     97 % 0.00 in /  0 mm
05:03 66.7 °F /  19.3 °C 65.8 °F /  18.8 °C 30.08 in /  1018.5 hPa Calm     97 % 0.00 in /  0 mm
05:08 66.7 °F /  19.3 °C 65.8 °F /  18.8 °C 30.08 in /  1018.5 hPa Calm     97 % 0.00 in /  0 mm
05:13 66.7 °F /  19.3 °C 65.8 °F /  18.8 °C 30.08 in /  1018.5 hPa Calm     97 % 0.00 in /  0 mm
05:23 66.7 °F /  19.3 °C 65.8 °F /  18.8 °C 30.09 in /  1018.8 hPa Calm     97 % 0.00 in /  0 mm
05:28 66.7 °F /  19.3 °C 65.8 °F /  18.8 °C 30.09 in /  1018.8 hPa Calm     97 % 0.00 in /  0 mm
05:33 66.7 °F /  19.3 °C 65.8 °F /  18.8 °C 30.09 in /  1018.8 hPa Calm     97 % 0.00 in /  0 mm
05:38 66.7 °F /  19.3 °C 65.8 °F /  18.8 °C 30.09 in /  1018.8 hPa Calm     97 % 0.00 in /  0 mm
05:43 66.7 °F /  19.3 °C 65.8 °F /  18.8 °C 30.09 in /  1018.8 hPa Calm     97 % 0.00 in /  0 mm
05:48 66.7 °F /  19.3 °C 65.8 °F /  18.8 °C 30.10 in /  1019.2 hPa Calm     97 % 0.00 in /  0 mm
05:53 66.8 °F /  19.3 °C 65.9 °F /  18.8 °C 30.10 in /  1019.2 hPa Calm     97 % 0.00 in /  0 mm
05:58 66.8 °F /  19.3 °C 65.9 °F /  18.8 °C 30.10 in /  1019.2 hPa Calm     97 % 0.00 in /  0 mm
06:04 66.8 °F /  19.3 °C 65.9 °F /  18.8 °C 30.09 in /  1018.8 hPa Calm     97 % 0.00 in /  0 mm
06:09 66.9 °F /  19.4 °C 66.0 °F /  18.9 °C 30.10 in /  1019.2 hPa Calm     97 % 0.00 in /  0 mm
06:14 66.9 °F /  19.4 °C 66.0 °F /  18.9 °C 30.10 in /  1019.2 hPa Calm     97 % 0.00 in /  0 mm
06:19 66.9 °F /  19.4 °C 66.0 °F /  18.9 °C 30.09 in /  1018.8 hPa Calm     97 % 0.00 in /  0 mm
06:24 66.9 °F /  19.4 °C 66.0 °F /  18.9 °C 30.10 in /  1019.2 hPa Calm     97 % 0.00 in /  0 mm
06:29 66.9 °F /  19.4 °C 66.0 °F /  18.9 °C 30.10 in /  1019.2 hPa Calm     97 % 0.00 in /  0 mm
06:34 66.9 °F /  19.4 °C 66.0 °F /  18.9 °C 30.10 in /  1019.2 hPa Calm     97 % 0.00 in /  0 mm
06:39 66.8 °F /  19.3 °C 65.9 °F /  18.8 °C 30.10 in /  1019.2 hPa Calm     97 % 0.00 in /  0 mm
06:44 66.9 °F /  19.4 °C 66.0 °F /  18.9 °C 30.10 in /  1019.2 hPa Calm     97 % 0.00 in /  0 mm
06:49 66.9 °F /  19.4 °C 66.0 °F /  18.9 °C 30.10 in /  1019.2 hPa Calm     97 % 0.00 in /  0 mm
06:54 66.9 °F /  19.4 °C 66.0 °F /  18.9 °C 30.11 in /  1019.5 hPa Calm     97 % 0.00 in /  0 mm
06:59 66.9 °F /  19.4 °C 66.0 °F /  18.9 °C 30.11 in /  1019.5 hPa Calm     97 % 0.00 in /  0 mm
07:05 66.9 °F /  19.4 °C 66.0 °F /  18.9 °C 30.11 in /  1019.5 hPa Calm     97 % 0.00 in /  0 mm
07:10 67.0 °F /  19.4 °C 66.1 °F /  18.9 °C 30.11 in /  1019.5 hPa Calm     97 % 0.00 in /  0 mm
07:15 66.9 °F /  19.4 °C 66.0 °F /  18.9 °C 30.11 in /  1019.5 hPa Calm     97 % 0.00 in /  0 mm
07:20 67.0 °F /  19.4 °C 66.1 °F /  18.9 °C 30.11 in /  1019.5 hPa Calm     97 % 0.00 in /  0 mm
07:25 67.0 °F /  19.4 °C 66.1 °F /  18.9 °C 30.11 in /  1019.5 hPa Calm     97 % 0.00 in /  0 mm
07:30 67.0 °F /  19.4 °C 66.1 °F /  18.9 °C 30.11 in /  1019.5 hPa Calm     97 % 0.00 in /  0 mm
07:35 67.0 °F /  19.4 °C 66.1 °F /  18.9 °C 30.11 in /  1019.5 hPa Calm     97 % 0.00 in /  0 mm
07:40 67.1 °F /  19.5 °C 66.2 °F /  19 °C 30.12 in /  1019.9 hPa Calm     97 % 0.00 in /  0 mm
07:45 67.1 °F /  19.5 °C 66.2 °F /  19 °C 30.12 in /  1019.9 hPa Calm     97 % 0.00 in /  0 mm
07:50 67.2 °F /  19.6 °C 66.3 °F /  19.1 °C 30.12 in /  1019.9 hPa Calm     97 % 0.00 in /  0 mm
07:55 67.2 °F /  19.6 °C 66.3 °F /  19.1 °C 30.12 in /  1019.9 hPa Calm     97 % 0.00 in /  0 mm
08:00 67.3 °F /  19.6 °C 66.4 °F /  19.1 °C 30.12 in /  1019.9 hPa Calm     97 % 0.00 in /  0 mm
08:06 67.4 °F /  19.7 °C 66.5 °F /  19.2 °C 30.12 in /  1019.9 hPa Calm     97 % 0.00 in /  0 mm
08:11 67.5 °F /  19.7 °C 66.6 °F /  19.2 °C 30.12 in /  1019.9 hPa Calm     97 % 0.00 in /  0 mm
08:16 67.6 °F /  19.8 °C 66.7 °F /  19.3 °C 30.12 in /  1019.9 hPa Calm     97 % 0.00 in /  0 mm
08:21 67.7 °F /  19.8 °C 66.8 °F /  19.3 °C 30.13 in /  1020.2 hPa Calm     97 % 0.00 in /  0 mm
08:26 67.8 °F /  19.9 °C 66.9 °F /  19.4 °C 30.12 in /  1019.9 hPa Calm     97 % 0.00 in /  0 mm
08:30 67.9 °F /  19.9 °C 67.0 °F /  19.4 °C 30.13 in /  1020.2 hPa Calm     97 % 0.00 in /  0 mm
08:36 68.0 °F /  20 °C 67.1 °F /  19.5 °C 30.12 in /  1019.9 hPa Calm     97 % 0.00 in /  0 mm
08:41 68.1 °F /  20.1 °C 67.2 °F /  19.6 °C 30.13 in /  1020.2 hPa Calm     97 % 0.00 in /  0 mm
08:46 68.3 °F /  20.2 °C 67.4 °F /  19.7 °C 30.12 in /  1019.9 hPa Calm     97 % 0.00 in /  0 mm
08:51 68.4 °F /  20.2 °C 67.5 °F /  19.7 °C 30.12 in /  1019.9 hPa Calm     97 % 0.00 in /  0 mm
09:01 68.8 °F /  20.4 °C 68.2 °F /  20.1 °C 30.13 in /  1020.2 hPa SSW 1.1 mph /  1.8 km/h 2.3 mph /  3.7 km/h 98 % 0.00 in /  0 mm
09:06 68.9 °F /  20.5 °C 68.3 °F /  20.2 °C 30.13 in /  1020.2 hPa ENE 0.3 mph /  0.5 km/h 3.5 mph /  5.6 km/h 98 % 0.00 in /  0 mm
09:11 69.0 °F /  20.6 °C 68.1 °F /  20.1 °C 30.12 in /  1019.9 hPa North 0.1 mph /  0.2 km/h 3.5 mph /  5.6 km/h 97 % 0.00 in /  0 mm
09:16 69.1 °F /  20.6 °C 68.5 °F /  20.3 °C 30.12 in /  1019.9 hPa North 0.3 mph /  0.5 km/h 1.2 mph /  1.9 km/h 98 % 0.00 in /  0 mm
09:26 69.4 °F /  20.8 °C 68.8 °F /  20.4 °C 30.12 in /  1019.9 hPa Calm   1.2 mph /  1.9 km/h 98 % 0.00 in /  0 mm
09:31 69.5 °F /  20.8 °C 68.6 °F /  20.3 °C 30.12 in /  1019.9 hPa NNE 1.9 mph /  3.1 km/h 3.5 mph /  5.6 km/h 97 % 0.00 in /  0 mm
09:36 69.5 °F /  20.8 °C 68.6 °F /  20.3 °C 30.12 in /  1019.9 hPa Calm   2.3 mph /  3.7 km/h 97 % 0.00 in /  0 mm
09:41 69.5 °F /  20.8 °C 68.6 °F /  20.3 °C 30.12 in /  1019.9 hPa North 1.0 mph /  1.6 km/h 2.3 mph /  3.7 km/h 97 % 0.00 in /  0 mm
09:46 69.6 °F /  20.9 °C 68.7 °F /  20.4 °C 30.11 in /  1019.5 hPa Calm   1.2 mph /  1.9 km/h 97 % 0.00 in /  0 mm
09:51 69.7 °F /  20.9 °C 68.8 °F /  20.4 °C 30.12 in /  1019.9 hPa Calm   1.2 mph /  1.9 km/h 97 % 0.00 in /  0 mm
10:02 69.9 °F /  21.1 °C 69.0 °F /  20.6 °C 30.12 in /  1019.9 hPa Calm     97 % 0.00 in /  0 mm
10:07 69.9 °F /  21.1 °C 69.0 °F /  20.6 °C 30.12 in /  1019.9 hPa Calm     97 % 0.00 in /  0 mm
10:12 70.0 °F /  21.1 °C 69.1 °F /  20.6 °C 30.11 in /  1019.5 hPa Calm   1.2 mph /  1.9 km/h 97 % 0.00 in /  0 mm
10:17 70.1 °F /  21.2 °C 69.2 °F /  20.7 °C 30.11 in /  1019.5 hPa Calm   1.2 mph /  1.9 km/h 97 % 0.00 in /  0 mm
10:22 70.3 °F /  21.3 °C 69.1 °F /  20.6 °C 30.11 in /  1019.5 hPa North 0.1 mph /  0.2 km/h 1.2 mph /  1.9 km/h 96 % 0.00 in /  0 mm
10:27 70.4 °F /  21.3 °C 69.2 °F /  20.7 °C 30.11 in /  1019.5 hPa North 0.2 mph /  0.3 km/h 2.3 mph /  3.7 km/h 96 % 0.00 in /  0 mm
10:32 70.4 °F /  21.3 °C 69.2 °F /  20.7 °C 30.11 in /  1019.5 hPa Calm   2.3 mph /  3.7 km/h 96 % 0.00 in /  0 mm
10:34 70.5 °F /  21.4 °C 69.3 °F /  20.7 °C 30.11 in /  1019.5 hPa Calm     96 % 0.00 in /  0 mm
10:40 70.6 °F /  21.4 °C 69.1 °F /  20.6 °C 30.10 in /  1019.2 hPa NNE 0.1 mph /  0.2 km/h 1.2 mph /  1.9 km/h 95 % 0.00 in /  0 mm
10:45 70.7 °F /  21.5 °C 68.9 °F /  20.5 °C 30.10 in /  1019.2 hPa NNE 0.3 mph /  0.5 km/h 1.2 mph /  1.9 km/h 94 % 0.00 in /  0 mm
10:50 70.9 °F /  21.6 °C 69.1 °F /  20.6 °C 30.10 in /  1019.2 hPa Calm   1.2 mph /  1.9 km/h 94 % 0.00 in /  0 mm
10:55 71.1 °F /  21.7 °C 69.3 °F /  20.7 °C 30.10 in /  1019.2 hPa NNE 1.6 mph /  2.6 km/h 2.3 mph /  3.7 km/h 94 % 0.00 in /  0 mm
11:00 71.3 °F /  21.8 °C 69.2 °F /  20.7 °C 30.10 in /  1019.2 hPa NNE 0.7 mph /  1.1 km/h 3.5 mph /  5.6 km/h 93 % 0.00 in /  0 mm
11:05 71.6 °F /  22 °C 69.2 °F /  20.7 °C 30.09 in /  1018.8 hPa NNE 0.1 mph /  0.2 km/h 1.2 mph /  1.9 km/h 92 % 0.00 in /  0 mm
11:10 71.8 °F /  22.1 °C 69.0 °F /  20.6 °C 30.09 in /  1018.8 hPa NE 1.2 mph /  1.9 km/h 3.5 mph /  5.6 km/h 91 % 0.00 in /  0 mm
11:15 72.1 °F /  22.3 °C 69.3 °F /  20.7 °C 30.10 in /  1019.2 hPa NNE 1.2 mph /  1.9 km/h 3.5 mph /  5.6 km/h 91 % 0.00 in /  0 mm
11:20 72.4 °F /  22.4 °C 69.3 °F /  20.7 °C 30.09 in /  1018.8 hPa NNE 1.8 mph /  2.9 km/h 5.0 mph /  8 km/h 90 % 0.00 in /  0 mm
11:30 73.0 °F /  22.8 °C 69.6 °F /  20.9 °C 30.09 in /  1018.8 hPa Calm   1.2 mph /  1.9 km/h 89 % 0.00 in /  0 mm
11:35 73.1 °F /  22.8 °C 69.3 °F /  20.7 °C 30.10 in /  1019.2 hPa North 0.6 mph /  1 km/h 3.5 mph /  5.6 km/h 88 % 0.00 in /  0 mm
11:40 73.3 °F /  22.9 °C 69.5 °F /  20.8 °C 30.10 in /  1019.2 hPa North 0.4 mph /  0.6 km/h 2.0 mph /  3.2 km/h 88 % 0.00 in /  0 mm
11:45 73.4 °F /  23 °C 69.6 °F /  20.9 °C 30.10 in /  1019.2 hPa NNW 0.4 mph /  0.6 km/h 2.0 mph /  3.2 km/h 88 % 0.00 in /  0 mm
11:51 73.5 °F /  23.1 °C 69.4 °F /  20.8 °C 30.10 in /  1019.2 hPa North 2.0 mph /  3.2 km/h 4.0 mph /  6.4 km/h 87 % 0.00 in /  0 mm
11:56 73.6 °F /  23.1 °C 69.8 °F /  21 °C 30.10 in /  1019.2 hPa North 1.0 mph /  1.6 km/h 3.0 mph /  4.8 km/h 88 % 0.00 in /  0 mm
12:01 73.7 °F /  23.2 °C 69.6 °F /  20.9 °C 30.09 in /  1018.8 hPa North 0.3 mph /  0.5 km/h 2.3 mph /  3.7 km/h 87 % 0.00 in /  0 mm
12:05 73.8 °F /  23.2 °C 69.3 °F /  20.7 °C 30.09 in /  1018.8 hPa North 1.0 mph /  1.6 km/h 5.0 mph /  8 km/h 86 % 0.00 in /  0 mm
12:10 73.9 °F /  23.3 °C 69.4 °F /  20.8 °C 30.10 in /  1019.2 hPa Calm   3.0 mph /  4.8 km/h 86 % 0.00 in /  0 mm
12:25 74.1 °F /  23.4 °C 69.6 °F /  20.9 °C 30.10 in /  1019.2 hPa North 1.0 mph /  1.6 km/h 5.0 mph /  8 km/h 86 % 0.00 in /  0 mm
12:31 74.1 °F /  23.4 °C 69.3 °F /  20.7 °C 30.10 in /  1019.2 hPa North 2.0 mph /  3.2 km/h 4.0 mph /  6.4 km/h 85 % 0.00 in /  0 mm
12:35 74.2 °F /  23.4 °C 69.4 °F /  20.8 °C 30.10 in /  1019.2 hPa North 2.0 mph /  3.2 km/h 5.0 mph /  8 km/h 85 % 0.00 in /  0 mm
12:40 74.2 °F /  23.4 °C 69.4 °F /  20.8 °C 30.10 in /  1019.2 hPa NNW 2.0 mph /  3.2 km/h 5.0 mph /  8 km/h 85 % 0.00 in /  0 mm
12:46 74.2 °F /  23.4 °C 69.1 °F /  20.6 °C 30.10 in /  1019.2 hPa Calm   4.0 mph /  6.4 km/h 84 % 0.00 in /  0 mm
12:51 74.2 °F /  23.4 °C 69.4 °F /  20.8 °C 30.09 in /  1018.8 hPa North 3.0 mph /  4.8 km/h 5.0 mph /  8 km/h 85 % 0.00 in /  0 mm
12:55 74.2 °F /  23.4 °C 69.7 °F /  20.9 °C 30.10 in /  1019.2 hPa North 0.3 mph /  0.5 km/h 1.0 mph /  1.6 km/h 86 % 0.00 in /  0 mm
13:01 74.2 °F /  23.4 °C 69.4 °F /  20.8 °C 30.10 in /  1019.2 hPa NNW 2.4 mph /  3.9 km/h 3.5 mph /  5.6 km/h 85 % 0.00 in /  0 mm
13:06 74.2 °F /  23.4 °C 69.4 °F /  20.8 °C 30.10 in /  1019.2 hPa NNW 0.9 mph /  1.4 km/h 3.5 mph /  5.6 km/h 85 % 0.00 in /  0 mm
13:11 74.2 °F /  23.4 °C 69.4 °F /  20.8 °C 30.10 in /  1019.2 hPa North 0.8 mph /  1.3 km/h 3.5 mph /  5.6 km/h 85 % 0.00 in /  0 mm
13:16 74.2 °F /  23.4 °C 69.7 °F /  20.9 °C 30.10 in /  1019.2 hPa North 2.8 mph /  4.5 km/h 3.5 mph /  5.6 km/h 86 % 0.00 in /  0 mm
13:21 74.2 °F /  23.4 °C 69.4 °F /  20.8 °C 30.09 in /  1018.8 hPa North 0.9 mph /  1.4 km/h 3.5 mph /  5.6 km/h 85 % 0.00 in /  0 mm
13:26 74.1 °F /  23.4 °C 69.3 °F /  20.7 °C 30.09 in /  1018.8 hPa NNE 0.9 mph /  1.4 km/h 3.5 mph /  5.6 km/h 85 % 0.00 in /  0 mm
13:31 74.1 °F /  23.4 °C 69.3 °F /  20.7 °C 30.09 in /  1018.8 hPa NW 1.0 mph /  1.6 km/h 3.5 mph /  5.6 km/h 85 % 0.00 in /  0 mm
13:36 74.0 °F /  23.3 °C 69.2 °F /  20.7 °C 30.09 in /  1018.8 hPa North 2.5 mph /  4 km/h 4.6 mph /  7.4 km/h 85 % 0.00 in /  0 mm
13:41 74.1 °F /  23.4 °C 69.3 °F /  20.7 °C 30.09 in /  1018.8 hPa NNE 2.3 mph /  3.7 km/h 5.0 mph /  8 km/h 85 % 0.00 in /  0 mm
13:46 74.1 °F /  23.4 °C 69.3 °F /  20.7 °C 30.08 in /  1018.5 hPa NNE 1.3 mph /  2.1 km/h 4.6 mph /  7.4 km/h 85 % 0.00 in /  0 mm
13:51 74.3 °F /  23.5 °C 69.5 °F /  20.8 °C 30.08 in /  1018.5 hPa NE 1.1 mph /  1.8 km/h 3.5 mph /  5.6 km/h 85 % 0.00 in /  0 mm
13:56 74.5 °F /  23.6 °C 69.3 °F /  20.7 °C 30.08 in /  1018.5 hPa ENE 0.4 mph /  0.6 km/h 3.5 mph /  5.6 km/h 84 % 0.00 in /  0 mm
14:01 74.7 °F /  23.7 °C 69.2 °F /  20.7 °C 30.09 in /  1018.8 hPa North 2.5 mph /  4 km/h 4.6 mph /  7.4 km/h 83 % 0.00 in /  0 mm
14:07 74.8 °F /  23.8 °C 69.6 °F /  20.9 °C 30.08 in /  1018.5 hPa NE 1.3 mph /  2.1 km/h 4.0 mph /  6.4 km/h 84 % 0.00 in /  0 mm
14:12 75.1 °F /  23.9 °C 69.6 °F /  20.9 °C 30.08 in /  1018.5 hPa SE 1.4 mph /  2.3 km/h 4.0 mph /  6.4 km/h 83 % 0.00 in /  0 mm
14:17 75.5 °F /  24.2 °C 70.0 °F /  21.1 °C 30.08 in /  1018.5 hPa SE 0.5 mph /  0.8 km/h 3.5 mph /  5.6 km/h 83 % 0.00 in /  0 mm
14:22 76.2 °F /  24.6 °C 70.3 °F /  21.3 °C 30.08 in /  1018.5 hPa SE 1.5 mph /  2.4 km/h 3.5 mph /  5.6 km/h 82 % 0.00 in /  0 mm
14:27 76.7 °F /  24.8 °C 71.1 °F /  21.7 °C 30.08 in /  1018.5 hPa SE 0.8 mph /  1.3 km/h 3.0 mph /  4.8 km/h 83 % 0.00 in /  0 mm
14:32 77.3 °F /  25.2 °C 71.0 °F /  21.7 °C 30.08 in /  1018.5 hPa SE 0.1 mph /  0.2 km/h 1.2 mph /  1.9 km/h 81 % 0.00 in /  0 mm
14:37 77.9 °F /  25.5 °C 70.5 °F /  21.4 °C 30.07 in /  1018.2 hPa SE 0.8 mph /  1.3 km/h 2.3 mph /  3.7 km/h 78 % 0.00 in /  0 mm
14:42 78.3 °F /  25.7 °C 71.6 °F /  22 °C 30.08 in /  1018.5 hPa Calm     80 % 0.00 in /  0 mm
14:47 78.8 °F /  26 °C 71.0 °F /  21.7 °C 30.08 in /  1018.5 hPa ESE 0.1 mph /  0.2 km/h   77 % 0.00 in /  0 mm
14:52 79.2 °F /  26.2 °C 71.0 °F /  21.7 °C 30.07 in /  1018.2 hPa East 0.2 mph /  0.3 km/h 1.2 mph /  1.9 km/h 76 % 0.00 in /  0 mm
14:57 79.5 °F /  26.4 °C 70.9 °F /  21.6 °C 30.07 in /  1018.2 hPa East 1.0 mph /  1.6 km/h 2.3 mph /  3.7 km/h 75 % 0.00 in /  0 mm
15:02 79.7 °F /  26.5 °C 70.7 °F /  21.5 °C 30.07 in /  1018.2 hPa ENE 0.9 mph /  1.4 km/h 3.5 mph /  5.6 km/h 74 % 0.00 in /  0 mm
15:07 79.8 °F /  26.6 °C 71.2 °F /  21.8 °C 30.08 in /  1018.5 hPa North 2.7 mph /  4.3 km/h 3.5 mph /  5.6 km/h 75 % 0.00 in /  0 mm
15:12 80.1 °F /  26.7 °C 71.8 °F /  22.1 °C 30.07 in /  1018.2 hPa North 2.3 mph /  3.7 km/h 4.0 mph /  6.4 km/h 76 % 0.00 in /  0 mm
15:18 80.2 °F /  26.8 °C 71.2 °F /  21.8 °C 30.07 in /  1018.2 hPa NE 1.9 mph /  3.1 km/h 3.5 mph /  5.6 km/h 74 % 0.00 in /  0 mm
15:23 80.2 °F /  26.8 °C 71.2 °F /  21.8 °C 30.07 in /  1018.2 hPa North 2.2 mph /  3.5 km/h 4.0 mph /  6.4 km/h 74 % 0.00 in /  0 mm
15:28 80.2 °F /  26.8 °C 70.8 °F /  21.6 °C 30.06 in /  1017.8 hPa NE 0.5 mph /  0.8 km/h 3.5 mph /  5.6 km/h 73 % 0.00 in /  0 mm
15:33 80.2 °F /  26.8 °C 71.6 °F /  22 °C 30.06 in /  1017.8 hPa North 0.4 mph /  0.6 km/h 2.0 mph /  3.2 km/h 75 % 0.00 in /  0 mm
15:38 80.2 °F /  26.8 °C 71.6 °F /  22 °C 30.06 in /  1017.8 hPa NNE 0.9 mph /  1.4 km/h 3.5 mph /  5.6 km/h 75 % 0.00 in /  0 mm
15:43 80.1 °F /  26.7 °C 71.1 °F /  21.7 °C 30.06 in /  1017.8 hPa NE 0.2 mph /  0.3 km/h 3.5 mph /  5.6 km/h 74 % 0.00 in /  0 mm
15:48 79.8 °F /  26.6 °C 70.8 °F /  21.6 °C 30.06 in /  1017.8 hPa ENE 0.6 mph /  1 km/h 1.2 mph /  1.9 km/h 74 % 0.00 in /  0 mm
15:58 79.4 °F /  26.3 °C 70.8 °F /  21.6 °C 30.06 in /  1017.8 hPa NE 0.3 mph /  0.5 km/h 1.2 mph /  1.9 km/h 75 % 0.00 in /  0 mm
16:03 79.4 °F /  26.3 °C 70.8 °F /  21.6 °C 30.06 in /  1017.8 hPa NE 0.5 mph /  0.8 km/h 2.3 mph /  3.7 km/h 75 % 0.00 in /  0 mm
16:08 79.3 °F /  26.3 °C 70.7 °F /  21.5 °C 30.06 in /  1017.8 hPa NNE 1.3 mph /  2.1 km/h 3.0 mph /  4.8 km/h 75 % 0.00 in /  0 mm
16:13 79.2 °F /  26.2 °C 71.0 °F /  21.7 °C 30.06 in /  1017.8 hPa NE 0.7 mph /  1.1 km/h 1.2 mph /  1.9 km/h 76 % 0.00 in /  0 mm
16:18 79.0 °F /  26.1 °C 70.4 °F /  21.3 °C 30.06 in /  1017.8 hPa NE 0.8 mph /  1.3 km/h 2.0 mph /  3.2 km/h 75 % 0.00 in /  0 mm
16:24 78.8 °F /  26 °C 70.2 °F /  21.2 °C 30.06 in /  1017.8 hPa NE 1.9 mph /  3.1 km/h 3.5 mph /  5.6 km/h 75 % 0.00 in /  0 mm
16:29 78.7 °F /  25.9 °C 70.1 °F /  21.2 °C 30.05 in /  1017.5 hPa ENE 0.9 mph /  1.4 km/h 2.3 mph /  3.7 km/h 75 % 0.00 in /  0 mm
16:34 78.5 °F /  25.8 °C 70.3 °F /  21.3 °C 30.05 in /  1017.5 hPa ENE 1.9 mph /  3.1 km/h 4.6 mph /  7.4 km/h 76 % 0.00 in /  0 mm
16:39 78.3 °F /  25.7 °C 70.5 °F /  21.4 °C 30.05 in /  1017.5 hPa ENE 0.4 mph /  0.6 km/h 2.3 mph /  3.7 km/h 77 % 0.00 in /  0 mm
16:44 78.1 °F /  25.6 °C 70.3 °F /  21.3 °C 30.05 in /  1017.5 hPa ENE 0.6 mph /  1 km/h 2.0 mph /  3.2 km/h 77 % 0.00 in /  0 mm
16:49 78.0 °F /  25.6 °C 70.2 °F /  21.2 °C 30.05 in /  1017.5 hPa ENE 1.2 mph /  1.9 km/h 3.5 mph /  5.6 km/h 77 % 0.00 in /  0 mm
16:54 77.7 °F /  25.4 °C 69.9 °F /  21.1 °C 30.05 in /  1017.5 hPa ENE 0.1 mph /  0.2 km/h 1.2 mph /  1.9 km/h 77 % 0.00 in /  0 mm
16:59 77.5 °F /  25.3 °C 70.1 °F /  21.2 °C 30.05 in /  1017.5 hPa ENE 0.1 mph /  0.2 km/h 1.2 mph /  1.9 km/h 78 % 0.00 in /  0 mm
17:04 77.3 °F /  25.2 °C 69.9 °F /  21.1 °C 30.05 in /  1017.5 hPa ENE 0.1 mph /  0.2 km/h 1.2 mph /  1.9 km/h 78 % 0.00 in /  0 mm
17:09 77.1 °F /  25.1 °C 69.7 °F /  20.9 °C 30.05 in /  1017.5 hPa ENE 0.6 mph /  1 km/h 2.3 mph /  3.7 km/h 78 % 0.00 in /  0 mm
17:14 77.0 °F /  25 °C 69.6 °F /  20.9 °C 30.05 in /  1017.5 hPa Calm     78 % 0.00 in /  0 mm
17:25 76.7 °F /  24.8 °C 69.7 °F /  20.9 °C 30.05 in /  1017.5 hPa Calm   1.0 mph /  1.6 km/h 79 % 0.00 in /  0 mm
17:30 76.6 °F /  24.8 °C 69.6 °F /  20.9 °C 30.04 in /  1017.2 hPa Calm     79 % 0.00 in /  0 mm
17:35 76.5 °F /  24.7 °C 69.1 °F /  20.6 °C 30.05 in /  1017.5 hPa Calm     78 % 0.00 in /  0 mm
17:40 76.5 °F /  24.7 °C 69.1 °F /  20.6 °C 30.05 in /  1017.5 hPa Calm   1.2 mph /  1.9 km/h 78 % 0.00 in /  0 mm
17:41 76.5 °F /  24.7 °C 69.1 °F /  20.6 °C 30.05 in /  1017.5 hPa Calm     78 % 0.00 in /  0 mm
17:46 76.4 °F /  24.7 °C 69.0 °F /  20.6 °C 30.04 in /  1017.2 hPa SE 1.1 mph /  1.8 km/h 3.5 mph /  5.6 km/h 78 % 0.00 in /  0 mm
17:51 76.4 °F /  24.7 °C 69.4 °F /  20.8 °C 30.05 in /  1017.5 hPa SE 1.3 mph /  2.1 km/h 3.5 mph /  5.6 km/h 79 % 0.00 in /  0 mm
17:56 76.4 °F /  24.7 °C 69.8 °F /  21 °C 30.04 in /  1017.2 hPa SSE 1.0 mph /  1.6 km/h 2.0 mph /  3.2 km/h 80 % 0.00 in /  0 mm
18:01 76.3 °F /  24.6 °C 70.0 °F /  21.1 °C 30.05 in /  1017.5 hPa SSE 0.4 mph /  0.6 km/h 1.2 mph /  1.9 km/h 81 % 0.00 in /  0 mm
18:07 76.2 °F /  24.6 °C 69.9 °F /  21.1 °C 30.05 in /  1017.5 hPa SE 3.6 mph /  5.8 km/h 6.9 mph /  11.1 km/h 81 % 0.00 in /  0 mm
18:12 75.9 °F /  24.4 °C 69.6 °F /  20.9 °C 30.05 in /  1017.5 hPa SE 1.7 mph /  2.7 km/h 6.0 mph /  9.7 km/h 81 % 0.00 in /  0 mm
18:17 75.6 °F /  24.2 °C 69.4 °F /  20.8 °C 30.05 in /  1017.5 hPa SE 3.5 mph /  5.6 km/h 6.0 mph /  9.7 km/h 81 % 0.00 in /  0 mm
18:27 74.9 °F /  23.8 °C 69.0 °F /  20.6 °C 30.05 in /  1017.5 hPa SE 1.4 mph /  2.3 km/h 4.6 mph /  7.4 km/h 82 % 0.00 in /  0 mm
18:32 74.7 °F /  23.7 °C 68.8 °F /  20.4 °C 30.05 in /  1017.5 hPa SE 0.6 mph /  1 km/h 3.5 mph /  5.6 km/h 82 % 0.00 in /  0 mm
18:43 73.9 °F /  23.3 °C 68.4 °F /  20.2 °C 30.05 in /  1017.5 hPa SSE 1.1 mph /  1.8 km/h 4.6 mph /  7.4 km/h 83 % 0.00 in /  0 mm
18:48 73.7 °F /  23.2 °C 68.2 °F /  20.1 °C 30.05 in /  1017.5 hPa Calm   1.2 mph /  1.9 km/h 83 % 0.00 in /  0 mm
18:53 73.5 °F /  23.1 °C 68.0 °F /  20 °C 30.05 in /  1017.5 hPa SE 2.9 mph /  4.7 km/h 6.9 mph /  11.1 km/h 83 % 0.00 in /  0 mm
18:58 73.0 °F /  22.8 °C 67.9 °F /  19.9 °C 30.05 in /  1017.5 hPa Calm   2.3 mph /  3.7 km/h 84 % 0.00 in /  0 mm
19:03 72.7 °F /  22.6 °C 67.6 °F /  19.8 °C 30.05 in /  1017.5 hPa Calm     84 % 0.00 in /  0 mm
19:08 72.5 °F /  22.5 °C 67.4 °F /  19.7 °C 30.04 in /  1017.2 hPa SE 1.5 mph /  2.4 km/h 3.5 mph /  5.6 km/h 84 % 0.00 in /  0 mm
19:13 72.2 °F /  22.3 °C 67.4 °F /  19.7 °C 30.04 in /  1017.2 hPa SE 1.7 mph /  2.7 km/h 5.8 mph /  9.3 km/h 85 % 0.00 in /  0 mm
19:18 71.8 °F /  22.1 °C 67.0 °F /  19.4 °C 30.04 in /  1017.2 hPa SE 3.2 mph /  5.1 km/h 5.8 mph /  9.3 km/h 85 % 0.00 in /  0 mm
19:23 71.3 °F /  21.8 °C 66.9 °F /  19.4 °C 30.05 in /  1017.5 hPa SE 1.3 mph /  2.1 km/h 2.3 mph /  3.7 km/h 86 % 0.00 in /  0 mm
19:33 70.7 °F /  21.5 °C 66.6 °F /  19.2 °C 30.05 in /  1017.5 hPa SE 1.3 mph /  2.1 km/h 3.5 mph /  5.6 km/h 87 % 0.00 in /  0 mm
19:38 70.4 °F /  21.3 °C 66.7 °F /  19.3 °C 30.05 in /  1017.5 hPa SE 1.3 mph /  2.1 km/h 3.0 mph /  4.8 km/h 88 % 0.00 in /  0 mm
19:44 70.1 °F /  21.2 °C 66.7 °F /  19.3 °C 30.05 in /  1017.5 hPa SE 1.0 mph /  1.6 km/h 3.5 mph /  5.6 km/h 89 % 0.00 in /  0 mm
19:49 69.8 °F /  21 °C 66.4 °F /  19.1 °C 30.05 in /  1017.5 hPa SE 1.6 mph /  2.6 km/h 5.8 mph /  9.3 km/h 89 % 0.00 in /  0 mm
19:54 69.6 °F /  20.9 °C 66.5 °F /  19.2 °C 30.05 in /  1017.5 hPa SE 5.1 mph /  8.2 km/h 9.2 mph /  14.8 km/h 90 % 0.00 in /  0 mm
19:59 69.4 °F /  20.8 °C 66.3 °F /  19.1 °C 30.05 in /  1017.5 hPa SE 0.8 mph /  1.3 km/h 3.5 mph /  5.6 km/h 90 % 0.00 in /  0 mm
20:04 69.3 °F /  20.7 °C 66.2 °F /  19 °C 30.06 in /  1017.8 hPa SE 2.5 mph /  4 km/h 4.6 mph /  7.4 km/h 90 % 0.00 in /  0 mm
20:09 69.1 °F /  20.6 °C 66.4 °F /  19.1 °C 30.06 in /  1017.8 hPa SE 2.9 mph /  4.7 km/h 6.0 mph /  9.7 km/h 91 % 0.00 in /  0 mm
20:14 69.0 °F /  20.6 °C 66.3 °F /  19.1 °C 30.06 in /  1017.8 hPa Calm     91 % 0.00 in /  0 mm
20:19 68.9 °F /  20.5 °C 66.2 °F /  19 °C 30.06 in /  1017.8 hPa SE 0.3 mph /  0.5 km/h 2.3 mph /  3.7 km/h 91 % 0.00 in /  0 mm
20:24 68.8 °F /  20.4 °C 66.1 °F /  18.9 °C 30.06 in /  1017.8 hPa Calm   1.2 mph /  1.9 km/h 91 % 0.00 in /  0 mm
20:29 68.7 °F /  20.4 °C 66.0 °F /  18.9 °C 30.06 in /  1017.8 hPa SE 0.1 mph /  0.2 km/h 2.0 mph /  3.2 km/h 91 % 0.00 in /  0 mm
20:34 68.6 °F /  20.3 °C 65.9 °F /  18.8 °C 30.06 in /  1017.8 hPa Calm     91 % 0.00 in /  0 mm
20:44 68.4 °F /  20.2 °C 66.0 °F /  18.9 °C 30.06 in /  1017.8 hPa Calm     92 % 0.00 in /  0 mm
20:50 68.3 °F /  20.2 °C 65.6 °F /  18.7 °C 30.06 in /  1017.8 hPa Calm     91 % 0.00 in /  0 mm
20:55 68.2 °F /  20.1 °C 65.5 °F /  18.6 °C 30.07 in /  1018.2 hPa Calm     91 % 0.00 in /  0 mm
21:00 68.1 °F /  20.1 °C 65.4 °F /  18.6 °C 30.07 in /  1018.2 hPa Calm     91 % 0.00 in /  0 mm
21:05 68.0 °F /  20 °C 65.3 °F /  18.5 °C 30.07 in /  1018.2 hPa Calm     91 % 0.00 in /  0 mm
21:15 67.9 °F /  19.9 °C 65.5 °F /  18.6 °C 30.06 in /  1017.8 hPa Calm     92 % 0.00 in /  0 mm
21:20 67.9 °F /  19.9 °C 65.5 °F /  18.6 °C 30.07 in /  1018.2 hPa Calm     92 % 0.00 in /  0 mm
21:25 67.8 °F /  19.9 °C 65.4 °F /  18.6 °C 30.07 in /  1018.2 hPa Calm     92 % 0.00 in /  0 mm
21:30 67.7 °F /  19.8 °C 65.3 °F /  18.5 °C 30.07 in /  1018.2 hPa Calm     92 % 0.00 in /  0 mm
21:35 67.7 °F /  19.8 °C 65.6 °F /  18.7 °C 30.07 in /  1018.2 hPa SE 1.1 mph /  1.8 km/h 1.2 mph /  1.9 km/h 93 % 0.00 in /  0 mm
21:40 67.6 °F /  19.8 °C 65.5 °F /  18.6 °C 30.07 in /  1018.2 hPa SE 1.0 mph /  1.6 km/h 1.2 mph /  1.9 km/h 93 % 0.00 in /  0 mm
21:46 67.6 °F /  19.8 °C 65.5 °F /  18.6 °C 30.07 in /  1018.2 hPa Calm   2.3 mph /  3.7 km/h 93 % 0.00 in /  0 mm
21:51 67.5 °F /  19.7 °C 65.4 °F /  18.6 °C 30.07 in /  1018.2 hPa Calm     93 % 0.00 in /  0 mm
21:56 67.5 °F /  19.7 °C 65.4 °F /  18.6 °C 30.07 in /  1018.2 hPa Calm   3.0 mph /  4.8 km/h 93 % 0.00 in /  0 mm
22:01 67.4 °F /  19.7 °C 65.3 °F /  18.5 °C 30.08 in /  1018.5 hPa Calm     93 % 0.00 in /  0 mm
22:06 67.4 °F /  19.7 °C 65.3 °F /  18.5 °C 30.08 in /  1018.5 hPa Calm     93 % 0.00 in /  0 mm
22:11 67.4 °F /  19.7 °C 65.3 °F /  18.5 °C 30.08 in /  1018.5 hPa Calm     93 % 0.00 in /  0 mm
22:16 67.3 °F /  19.6 °C 65.2 °F /  18.4 °C 30.08 in /  1018.5 hPa Calm     93 % 0.00 in /  0 mm
22:21 67.3 °F /  19.6 °C 65.2 °F /  18.4 °C 30.08 in /  1018.5 hPa Calm     93 % 0.00 in /  0 mm
22:26 67.3 °F /  19.6 °C 65.2 °F /  18.4 °C 30.08 in /  1018.5 hPa Calm     93 % 0.00 in /  0 mm
22:31 67.3 °F /  19.6 °C 65.2 °F /  18.4 °C 30.08 in /  1018.5 hPa Calm     93 % 0.00 in /  0 mm
22:36 67.3 °F /  19.6 °C 65.2 °F /  18.4 °C 30.08 in /  1018.5 hPa Calm     93 % 0.00 in /  0 mm
22:41 67.3 °F /  19.6 °C 65.2 °F /  18.4 °C 30.08 in /  1018.5 hPa Calm     93 % 0.00 in /  0 mm
22:51 67.3 °F /  19.6 °C 65.2 °F /  18.4 °C 30.08 in /  1018.5 hPa Calm     93 % 0.00 in /  0 mm
22:56 67.3 °F /  19.6 °C 65.2 °F /  18.4 °C 30.08 in /  1018.5 hPa Calm     93 % 0.00 in /  0 mm
23:01 67.3 °F /  19.6 °C 65.2 °F /  18.4 °C 30.08 in /  1018.5 hPa Calm     93 % 0.00 in /  0 mm
23:07 67.3 °F /  19.6 °C 65.2 °F /  18.4 °C 30.08 in /  1018.5 hPa Calm     93 % 0.00 in /  0 mm
23:13 67.3 °F /  19.6 °C 65.2 °F /  18.4 °C 30.08 in /  1018.5 hPa Calm     93 % 0.00 in /  0 mm
23:18 67.3 °F /  19.6 °C 65.2 °F /  18.4 °C 30.08 in /  1018.5 hPa Calm     93 % 0.00 in /  0 mm
23:20 67.3 °F /  19.6 °C 65.2 °F /  18.4 °C 30.08 in /  1018.5 hPa Calm     93 % 0.00 in /  0 mm
23:24 67.3 °F /  19.6 °C 65.2 °F /  18.4 °C 30.08 in /  1018.5 hPa Calm     93 % 0.00 in /  0 mm
23:25 67.3 °F /  19.6 °C 65.2 °F /  18.4 °C 30.08 in /  1018.5 hPa Calm     93 % 0.00 in /  0 mm
23:30 67.3 °F /  19.6 °C 65.2 °F /  18.4 °C 30.08 in /  1018.5 hPa SE 0.1 mph /  0.2 km/h 1.2 mph /  1.9 km/h 93 % 0.00 in /  0 mm
23:35 67.3 °F /  19.6 °C 65.2 °F /  18.4 °C 30.08 in /  1018.5 hPa Calm     93 % 0.00 in /  0 mm
23:41 67.3 °F /  19.6 °C 65.2 °F /  18.4 °C 30.08 in /  1018.5 hPa SE 0.6 mph /  1 km/h   93 % 0.00 in /  0 mm
23:46 67.3 °F /  19.6 °C 65.5 °F /  18.6 °C 30.08 in /  1018.5 hPa Calm   3.0 mph /  4.8 km/h 94 % 0.00 in /  0 mm
23:51 67.4 °F /  19.7 °C 65.6 °F /  18.7 °C 30.08 in /  1018.5 hPa Calm     94 % 0.00 in /  0 mm
23:56 67.4 °F /  19.7 °C 65.6 °F /  18.7 °C 30.08 in /  1018.5 hPa Calm   1.0 mph /  1.6 km/h 94 % 0.00 in /  0 mm
Crab Meadow Weather
Compliments of Weather Underground - 3 mb

Script developed by  Jim McMurry - jmcmurry@mwt.net Adapted for the template by  Wim van der Kuil - Leuven-Template.eu

Recycling: Out of every $10 spent buying things, $1 (10%) goes for packaging that is thrown away. Packaging represents about 65% of household trash.